sensor_id;sensor_type;location;lat;lon;timestamp;P1;durP1;ratioP1;P2;durP2;ratioP2
68987;SDS011;56038;46.080;11.116;2022-09-13T00:02:08;4.93;;;2.58;;
68987;SDS011;56038;46.080;11.116;2022-09-13T00:07:09;2.92;;;2.72;;
68987;SDS011;56038;46.080;11.116;2022-09-13T00:12:12;3.65;;;2.70;;
68987;SDS011;56038;46.080;11.116;2022-09-13T00:17:14;4.32;;;3.00;;
68987;SDS011;56038;46.080;11.116;2022-09-13T00:22:16;5.65;;;2.80;;
68987;SDS011;56038;46.080;11.116;2022-09-13T00:27:19;3.13;;;2.85;;
68987;SDS011;56038;46.080;11.116;2022-09-13T00:32:21;3.60;;;2.85;;
68987;SDS011;56038;46.080;11.116;2022-09-13T00:37:22;4.68;;;2.47;;
68987;SDS011;56038;46.080;11.116;2022-09-13T00:42:26;3.42;;;2.65;;
68987;SDS011;56038;46.080;11.116;2022-09-13T00:47:32;5.95;;;2.83;;
68987;SDS011;56038;46.080;11.116;2022-09-13T00:52:38;3.25;;;2.95;;
68987;SDS011;56038;46.080;11.116;2022-09-13T00:57:42;4.00;;;2.67;;
68987;SDS011;56038;46.080;11.116;2022-09-13T01:02:46;3.78;;;3.05;;
68987;SDS011;56038;46.080;11.116;2022-09-13T01:07:51;4.75;;;2.70;;
68987;SDS011;56038;46.080;11.116;2022-09-13T01:12:55;5.40;;;3.03;;
68987;SDS011;56038;46.080;11.116;2022-09-13T01:18:01;3.58;;;2.90;;
68987;SDS011;56038;46.080;11.116;2022-09-13T01:23:26;3.55;;;2.78;;
68987;SDS011;56038;46.080;11.116;2022-09-13T01:28:56;3.58;;;2.97;;
68987;SDS011;56038;46.080;11.116;2022-09-13T01:34:12;3.90;;;3.47;;
68987;SDS011;56038;46.080;11.116;2022-09-13T01:39:23;3.40;;;2.92;;
68987;SDS011;56038;46.080;11.116;2022-09-13T01:44:43;3.00;;;2.70;;
68987;SDS011;56038;46.080;11.116;2022-09-13T01:50:02;5.13;;;2.90;;
68987;SDS011;56038;46.080;11.116;2022-09-13T01:55:14;2.65;;;2.42;;
68987;SDS011;56038;46.080;11.116;2022-09-13T02:00:26;2.88;;;2.45;;
68987;SDS011;56038;46.080;11.116;2022-09-13T02:05:37;4.00;;;2.40;;
68987;SDS011;56038;46.080;11.116;2022-09-13T02:10:45;6.03;;;2.55;;
68987;SDS011;56038;46.080;11.116;2022-09-13T02:15:50;5.10;;;2.90;;
68987;SDS011;56038;46.080;11.116;2022-09-13T02:20:59;3.80;;;3.08;;
68987;SDS011;56038;46.080;11.116;2022-09-13T02:26:06;5.82;;;3.33;;
68987;SDS011;56038;46.080;11.116;2022-09-13T02:31:11;3.97;;;2.67;;
68987;SDS011;56038;46.080;11.116;2022-09-13T02:36:20;3.17;;;2.78;;
68987;SDS011;56038;46.080;11.116;2022-09-13T02:41:27;4.47;;;3.05;;
68987;SDS011;56038;46.080;11.116;2022-09-13T02:46:39;3.08;;;2.75;;
68987;SDS011;56038;46.080;11.116;2022-09-13T02:51:56;3.40;;;2.90;;
68987;SDS011;56038;46.080;11.116;2022-09-13T02:57:07;5.13;;;3.03;;
68987;SDS011;56038;46.080;11.116;2022-09-13T03:02:15;3.45;;;2.90;;
68987;SDS011;56038;46.080;11.116;2022-09-13T03:07:23;2.70;;;2.50;;
68987;SDS011;56038;46.080;11.116;2022-09-13T03:12:30;4.35;;;2.90;;
68987;SDS011;56038;46.080;11.116;2022-09-13T03:17:46;4.63;;;3.03;;
68987;SDS011;56038;46.080;11.116;2022-09-13T03:28:29;5.00;;;3.20;;
68987;SDS011;56038;46.080;11.116;2022-09-13T03:33:40;3.22;;;3.03;;
68987;SDS011;56038;46.080;11.116;2022-09-13T03:38:52;6.32;;;3.38;;
68987;SDS011;56038;46.080;11.116;2022-09-13T03:43:59;3.55;;;3.10;;
68987;SDS011;56038;46.080;11.116;2022-09-13T03:49:05;3.65;;;3.25;;
68987;SDS011;56038;46.080;11.116;2022-09-13T03:54:11;3.38;;;3.15;;
68987;SDS011;56038;46.080;11.116;2022-09-13T03:59:16;3.08;;;2.63;;
68987;SDS011;56038;46.080;11.116;2022-09-13T04:04:19;4.03;;;3.00;;
68987;SDS011;56038;46.080;11.116;2022-09-13T04:09:22;2.90;;;2.70;;
68987;SDS011;56038;46.080;11.116;2022-09-13T04:14:24;3.10;;;2.90;;
68987;SDS011;56038;46.080;11.116;2022-09-13T04:19:27;5.43;;;2.97;;
68987;SDS011;56038;46.080;11.116;2022-09-13T04:24:30;3.10;;;2.80;;
68987;SDS011;56038;46.080;11.116;2022-09-13T04:29:32;3.08;;;2.80;;
68987;SDS011;56038;46.080;11.116;2022-09-13T04:34:33;3.67;;;3.00;;
68987;SDS011;56038;46.080;11.116;2022-09-13T04:39:37;4.22;;;2.88;;
68987;SDS011;56038;46.080;11.116;2022-09-13T04:44:38;3.53;;;3.22;;
68987;SDS011;56038;46.080;11.116;2022-09-13T04:49:40;3.70;;;2.90;;
68987;SDS011;56038;46.080;11.116;2022-09-13T04:54:43;6.45;;;3.35;;
68987;SDS011;56038;46.080;11.116;2022-09-13T04:59:44;3.35;;;2.90;;
68987;SDS011;56038;46.080;11.116;2022-09-13T05:04:46;3.55;;;3.20;;
68987;SDS011;56038;46.080;11.116;2022-09-13T05:09:49;3.60;;;3.05;;
68987;SDS011;56038;46.080;11.116;2022-09-13T05:14:52;3.22;;;2.75;;
68987;SDS011;56038;46.080;11.116;2022-09-13T05:19:53;3.85;;;3.45;;
68987;SDS011;56038;46.080;11.116;2022-09-13T05:24:56;2.95;;;2.70;;
68987;SDS011;56038;46.080;11.116;2022-09-13T05:29:58;12.18;;;8.48;;
68987;SDS011;56038;46.080;11.116;2022-09-13T05:35:00;4.35;;;3.65;;
68987;SDS011;56038;46.080;11.116;2022-09-13T05:40:03;3.03;;;2.80;;
68987;SDS011;56038;46.080;11.116;2022-09-13T05:45:06;3.22;;;2.85;;
68987;SDS011;56038;46.080;11.116;2022-09-13T05:50:08;7.97;;;3.17;;
68987;SDS011;56038;46.080;11.116;2022-09-13T05:55:11;8.52;;;3.38;;
68987;SDS011;56038;46.080;11.116;2022-09-13T06:00:14;8.27;;;3.40;;
68987;SDS011;56038;46.080;11.116;2022-09-13T06:05:17;13.30;;;7.05;;
68987;SDS011;56038;46.080;11.116;2022-09-13T06:10:21;6.40;;;3.65;;
68987;SDS011;56038;46.080;11.116;2022-09-13T06:15:24;6.22;;;3.45;;
68987;SDS011;56038;46.080;11.116;2022-09-13T06:20:26;5.38;;;4.88;;
68987;SDS011;56038;46.080;11.116;2022-09-13T06:25:29;8.27;;;2.90;;
68987;SDS011;56038;46.080;11.116;2022-09-13T06:30:31;3.63;;;2.70;;
68987;SDS011;56038;46.080;11.116;2022-09-13T06:35:33;4.05;;;3.15;;
68987;SDS011;56038;46.080;11.116;2022-09-13T06:40:36;7.28;;;2.70;;
68987;SDS011;56038;46.080;11.116;2022-09-13T06:45:38;4.25;;;2.88;;
68987;SDS011;56038;46.080;11.116;2022-09-13T06:50:41;7.57;;;2.70;;
68987;SDS011;56038;46.080;11.116;2022-09-13T06:55:46;6.10;;;2.50;;
68987;SDS011;56038;46.080;11.116;2022-09-13T07:00:47;2.80;;;2.35;;
68987;SDS011;56038;46.080;11.116;2022-09-13T07:05:49;6.60;;;2.55;;
68987;SDS011;56038;46.080;11.116;2022-09-13T07:10:52;5.25;;;2.65;;
68987;SDS011;56038;46.080;11.116;2022-09-13T07:15:59;3.10;;;2.00;;
68987;SDS011;56038;46.080;11.116;2022-09-13T07:21:02;2.80;;;2.60;;
68987;SDS011;56038;46.080;11.116;2022-09-13T07:26:06;3.53;;;2.05;;
68987;SDS011;56038;46.080;11.116;2022-09-13T07:31:09;5.15;;;2.50;;
68987;SDS011;56038;46.080;11.116;2022-09-13T07:36:12;2.47;;;1.90;;
68987;SDS011;56038;46.080;11.116;2022-09-13T07:41:17;20.58;;;11.30;;
68987;SDS011;56038;46.080;11.116;2022-09-13T07:46:20;5.93;;;1.95;;
68987;SDS011;56038;46.080;11.116;2022-09-13T07:51:23;9.95;;;2.50;;
68987;SDS011;56038;46.080;11.116;2022-09-13T07:56:29;6.22;;;2.90;;
68987;SDS011;56038;46.080;11.116;2022-09-13T08:01:33;6.57;;;2.28;;
68987;SDS011;56038;46.080;11.116;2022-09-13T08:06:37;3.60;;;2.03;;
68987;SDS011;56038;46.080;11.116;2022-09-13T08:11:41;2.25;;;2.05;;
68987;SDS011;56038;46.080;11.116;2022-09-13T08:16:44;3.10;;;1.92;;
68987;SDS011;56038;46.080;11.116;2022-09-13T08:21:47;3.50;;;2.10;;
68987;SDS011;56038;46.080;11.116;2022-09-13T08:26:53;2.60;;;2.20;;
68987;SDS011;56038;46.080;11.116;2022-09-13T08:31:55;2.17;;;1.88;;
68987;SDS011;56038;46.080;11.116;2022-09-13T08:36:57;3.88;;;1.83;;
68987;SDS011;56038;46.080;11.116;2022-09-13T08:42:02;2.42;;;2.00;;
68987;SDS011;56038;46.080;11.116;2022-09-13T08:47:23;26.33;;;3.67;;
68987;SDS011;56038;46.080;11.116;2022-09-13T08:52:32;2.40;;;2.20;;
68987;SDS011;56038;46.080;11.116;2022-09-13T08:57:41;2.53;;;2.33;;
68987;SDS011;56038;46.080;11.116;2022-09-13T09:02:55;2.40;;;2.20;;
68987;SDS011;56038;46.080;11.116;2022-09-13T09:08:03;2.17;;;1.63;;
68987;SDS011;56038;46.080;11.116;2022-09-13T09:13:14;8.02;;;2.15;;
68987;SDS011;56038;46.080;11.116;2022-09-13T09:18:23;3.45;;;1.70;;
68987;SDS011;56038;46.080;11.116;2022-09-13T09:23:29;4.72;;;2.00;;
68987;SDS011;56038;46.080;11.116;2022-09-13T09:28:43;3.00;;;2.10;;
68987;SDS011;56038;46.080;11.116;2022-09-13T09:33:54;5.93;;;4.30;;
68987;SDS011;56038;46.080;11.116;2022-09-13T09:39:04;2.78;;;2.40;;
68987;SDS011;56038;46.080;11.116;2022-09-13T09:44:13;5.00;;;2.08;;
68987;SDS011;56038;46.080;11.116;2022-09-13T09:49:20;1.80;;;1.70;;
68987;SDS011;56038;46.080;11.116;2022-09-13T09:54:44;3.70;;;2.20;;
68987;SDS011;56038;46.080;11.116;2022-09-13T09:59:49;4.07;;;2.00;;
68987;SDS011;56038;46.080;11.116;2022-09-13T10:04:54;3.22;;;2.92;;
68987;SDS011;56038;46.080;11.116;2022-09-13T10:09:58;2.05;;;1.65;;
68987;SDS011;56038;46.080;11.116;2022-09-13T10:15:14;4.32;;;3.30;;
68987;SDS011;56038;46.080;11.116;2022-09-13T10:25:22;15.32;;;7.93;;
68987;SDS011;56038;46.080;11.116;2022-09-13T10:30:31;5.40;;;4.25;;
68987;SDS011;56038;46.080;11.116;2022-09-13T10:35:37;7.97;;;3.45;;
68987;SDS011;56038;46.080;11.116;2022-09-13T10:40:39;3.38;;;2.67;;
68987;SDS011;56038;46.080;11.116;2022-09-13T10:45:42;6.10;;;3.65;;
68987;SDS011;56038;46.080;11.116;2022-09-13T10:50:58;2.58;;;2.30;;
68987;SDS011;56038;46.080;11.116;2022-09-13T10:56:01;2.72;;;2.10;;
68987;SDS011;56038;46.080;11.116;2022-09-13T11:01:09;4.28;;;1.92;;
68987;SDS011;56038;46.080;11.116;2022-09-13T11:06:21;17.98;;;3.50;;
68987;SDS011;56038;46.080;11.116;2022-09-13T11:11:31;2.97;;;2.35;;
68987;SDS011;56038;46.080;11.116;2022-09-13T11:16:44;42.63;;;5.63;;
68987;SDS011;56038;46.080;11.116;2022-09-13T11:21:57;9.80;;;2.50;;
68987;SDS011;56038;46.080;11.116;2022-09-13T11:27:16;2.50;;;2.03;;
68987;SDS011;56038;46.080;11.116;2022-09-13T11:32:30;2.15;;;1.80;;
68987;SDS011;56038;46.080;11.116;2022-09-13T11:37:49;2.05;;;1.65;;
68987;SDS011;56038;46.080;11.116;2022-09-13T11:43:03;1.85;;;1.63;;
68987;SDS011;56038;46.080;11.116;2022-09-13T11:48:24;7.30;;;2.00;;
68987;SDS011;56038;46.080;11.116;2022-09-13T11:53:42;2.47;;;2.22;;
68987;SDS011;56038;46.080;11.116;2022-09-13T11:58:53;2.57;;;2.30;;
68987;SDS011;56038;46.080;11.116;2022-09-13T12:04:02;29.88;;;3.65;;
68987;SDS011;56038;46.080;11.116;2022-09-13T12:09:10;9.07;;;2.78;;
68987;SDS011;56038;46.080;11.116;2022-09-13T12:14:17;6.60;;;2.83;;
68987;SDS011;56038;46.080;11.116;2022-09-13T12:19:25;13.10;;;2.97;;
68987;SDS011;56038;46.080;11.116;2022-09-13T12:24:33;7.53;;;2.25;;
68987;SDS011;56038;46.080;11.116;2022-09-13T12:29:43;4.10;;;2.05;;
68987;SDS011;56038;46.080;11.116;2022-09-13T12:34:54;7.75;;;2.15;;
68987;SDS011;56038;46.080;11.116;2022-09-13T12:40:09;3.20;;;1.60;;
68987;SDS011;56038;46.080;11.116;2022-09-13T12:45:32;4.57;;;2.30;;
68987;SDS011;56038;46.080;11.116;2022-09-13T12:50:48;32.25;;;5.90;;
68987;SDS011;56038;46.080;11.116;2022-09-13T12:56:02;9.18;;;3.85;;
68987;SDS011;56038;46.080;11.116;2022-09-13T13:01:19;7.65;;;3.15;;
68987;SDS011;56038;46.080;11.116;2022-09-13T13:06:28;7.50;;;4.30;;
68987;SDS011;56038;46.080;11.116;2022-09-13T13:11:41;22.88;;;4.38;;
68987;SDS011;56038;46.080;11.116;2022-09-13T13:16:45;9.82;;;2.63;;
68987;SDS011;56038;46.080;11.116;2022-09-13T13:21:50;3.72;;;3.40;;
68987;SDS011;56038;46.080;11.116;2022-09-13T13:26:53;8.13;;;4.30;;
68987;SDS011;56038;46.080;11.116;2022-09-13T13:42:38;4.28;;;3.00;;
68987;SDS011;56038;46.080;11.116;2022-09-13T13:47:52;4.38;;;3.97;;
68987;SDS011;56038;46.080;11.116;2022-09-13T13:53:20;2.50;;;2.00;;
68987;SDS011;56038;46.080;11.116;2022-09-13T13:58:25;4.70;;;2.90;;
68987;SDS011;56038;46.080;11.116;2022-09-13T14:03:33;4.80;;;3.97;;
68987;SDS011;56038;46.080;11.116;2022-09-13T14:08:54;2.50;;;2.30;;
68987;SDS011;56038;46.080;11.116;2022-09-13T14:14:08;4.70;;;2.37;;
68987;SDS011;56038;46.080;11.116;2022-09-13T14:19:20;4.85;;;2.30;;
68987;SDS011;56038;46.080;11.116;2022-09-13T14:24:26;2.78;;;2.15;;
68987;SDS011;56038;46.080;11.116;2022-09-13T14:29:27;11.10;;;4.88;;
68987;SDS011;56038;46.080;11.116;2022-09-13T14:34:30;8.93;;;4.17;;
68987;SDS011;56038;46.080;11.116;2022-09-13T14:39:35;4.18;;;3.80;;
68987;SDS011;56038;46.080;11.116;2022-09-13T14:44:37;7.13;;;5.43;;
68987;SDS011;56038;46.080;11.116;2022-09-13T14:49:45;7.05;;;5.47;;
68987;SDS011;56038;46.080;11.116;2022-09-13T14:54:52;5.57;;;5.18;;
68987;SDS011;56038;46.080;11.116;2022-09-13T14:59:57;4.05;;;3.58;;
68987;SDS011;56038;46.080;11.116;2022-09-13T15:05:03;6.80;;;3.00;;
68987;SDS011;56038;46.080;11.116;2022-09-13T15:10:18;6.63;;;6.07;;
68987;SDS011;56038;46.080;11.116;2022-09-13T15:15:31;4.78;;;2.92;;
68987;SDS011;56038;46.080;11.116;2022-09-13T15:20:44;6.03;;;4.35;;
68987;SDS011;56038;46.080;11.116;2022-09-13T15:26:00;4.07;;;3.03;;
68987;SDS011;56038;46.080;11.116;2022-09-13T15:31:05;6.28;;;5.68;;
68987;SDS011;56038;46.080;11.116;2022-09-13T15:36:12;7.05;;;5.72;;
68987;SDS011;56038;46.080;11.116;2022-09-13T15:41:29;5.20;;;3.33;;
68987;SDS011;56038;46.080;11.116;2022-09-13T15:46:33;4.15;;;3.70;;
68987;SDS011;56038;46.080;11.116;2022-09-13T15:51:43;5.00;;;4.13;;
68987;SDS011;56038;46.080;11.116;2022-09-13T15:56:47;4.80;;;3.88;;
68987;SDS011;56038;46.080;11.116;2022-09-13T16:01:50;3.70;;;3.40;;
68987;SDS011;56038;46.080;11.116;2022-09-13T16:06:52;5.93;;;4.38;;
68987;SDS011;56038;46.080;11.116;2022-09-13T16:11:56;9.85;;;7.55;;
68987;SDS011;56038;46.080;11.116;2022-09-13T16:16:58;15.70;;;5.63;;
68987;SDS011;56038;46.080;11.116;2022-09-13T16:22:02;8.70;;;5.20;;
68987;SDS011;56038;46.080;11.116;2022-09-13T16:27:05;10.23;;;6.63;;
68987;SDS011;56038;46.080;11.116;2022-09-13T16:32:07;6.60;;;5.72;;
68987;SDS011;56038;46.080;11.116;2022-09-13T16:37:09;7.57;;;4.63;;
68987;SDS011;56038;46.080;11.116;2022-09-13T16:42:16;7.22;;;5.30;;
68987;SDS011;56038;46.080;11.116;2022-09-13T16:47:19;9.10;;;6.25;;
68987;SDS011;56038;46.080;11.116;2022-09-13T16:52:20;5.18;;;4.63;;
68987;SDS011;56038;46.080;11.116;2022-09-13T16:57:23;7.53;;;5.45;;
68987;SDS011;56038;46.080;11.116;2022-09-13T17:02:25;7.07;;;5.05;;
68987;SDS011;56038;46.080;11.116;2022-09-13T17:07:27;6.38;;;5.35;;
68987;SDS011;56038;46.080;11.116;2022-09-13T17:12:30;7.20;;;6.25;;
68987;SDS011;56038;46.080;11.116;2022-09-13T17:17:31;10.65;;;9.10;;
68987;SDS011;56038;46.080;11.116;2022-09-13T17:22:35;9.18;;;5.95;;
68987;SDS011;56038;46.080;11.116;2022-09-13T17:27:38;12.02;;;8.27;;
68987;SDS011;56038;46.080;11.116;2022-09-13T17:32:40;13.18;;;10.45;;
68987;SDS011;56038;46.080;11.116;2022-09-13T17:37:41;9.52;;;6.78;;
68987;SDS011;56038;46.080;11.116;2022-09-13T17:42:44;7.53;;;6.50;;
68987;SDS011;56038;46.080;11.116;2022-09-13T17:47:50;11.18;;;7.40;;
68987;SDS011;56038;46.080;11.116;2022-09-13T17:52:52;10.60;;;7.47;;
68987;SDS011;56038;46.080;11.116;2022-09-13T17:57:55;7.75;;;6.35;;
68987;SDS011;56038;46.080;11.116;2022-09-13T18:02:57;12.70;;;6.22;;
68987;SDS011;56038;46.080;11.116;2022-09-13T18:07:58;11.32;;;6.93;;
68987;SDS011;56038;46.080;11.116;2022-09-13T18:13:01;9.30;;;7.40;;
68987;SDS011;56038;46.080;11.116;2022-09-13T18:18:03;7.85;;;7.05;;
68987;SDS011;56038;46.080;11.116;2022-09-13T18:23:05;10.43;;;7.13;;
68987;SDS011;56038;46.080;11.116;2022-09-13T18:28:08;10.27;;;7.95;;
68987;SDS011;56038;46.080;11.116;2022-09-13T18:33:10;8.00;;;7.20;;
68987;SDS011;56038;46.080;11.116;2022-09-13T18:38:12;11.73;;;6.40;;
68987;SDS011;56038;46.080;11.116;2022-09-13T18:43:15;10.93;;;7.45;;
68987;SDS011;56038;46.080;11.116;2022-09-13T18:48:17;9.73;;;6.38;;
68987;SDS011;56038;46.080;11.116;2022-09-13T18:53:18;9.32;;;7.05;;
68987;SDS011;56038;46.080;11.116;2022-09-13T18:58:21;15.35;;;6.82;;
68987;SDS011;56038;46.080;11.116;2022-09-13T19:03:23;7.90;;;6.43;;
68987;SDS011;56038;46.080;11.116;2022-09-13T19:08:25;7.38;;;6.57;;
68987;SDS011;56038;46.080;11.116;2022-09-13T19:13:30;10.35;;;6.60;;
68987;SDS011;56038;46.080;11.116;2022-09-13T19:18:33;9.75;;;6.53;;
68987;SDS011;56038;46.080;11.116;2022-09-13T19:23:36;9.70;;;6.37;;
68987;SDS011;56038;46.080;11.116;2022-09-13T19:28:44;8.90;;;5.63;;
68987;SDS011;56038;46.080;11.116;2022-09-13T19:33:46;9.55;;;4.88;;
68987;SDS011;56038;46.080;11.116;2022-09-13T19:38:49;7.05;;;5.53;;
68987;SDS011;56038;46.080;11.116;2022-09-13T19:43:53;5.68;;;4.53;;
68987;SDS011;56038;46.080;11.116;2022-09-13T19:48:56;5.38;;;4.60;;
68987;SDS011;56038;46.080;11.116;2022-09-13T19:53:59;8.68;;;4.90;;
68987;SDS011;56038;46.080;11.116;2022-09-13T19:59:02;7.88;;;4.28;;
68987;SDS011;56038;46.080;11.116;2022-09-13T20:04:05;6.60;;;5.20;;
68987;SDS011;56038;46.080;11.116;2022-09-13T20:09:09;6.20;;;4.53;;
68987;SDS011;56038;46.080;11.116;2022-09-13T20:14:13;6.38;;;5.25;;
68987;SDS011;56038;46.080;11.116;2022-09-13T20:19:18;7.47;;;5.13;;
68987;SDS011;56038;46.080;11.116;2022-09-13T20:24:21;5.78;;;5.28;;
68987;SDS011;56038;46.080;11.116;2022-09-13T20:29:24;5.72;;;5.20;;
68987;SDS011;56038;46.080;11.116;2022-09-13T20:34:25;8.48;;;5.18;;
68987;SDS011;56038;46.080;11.116;2022-09-13T20:39:27;6.05;;;4.95;;
68987;SDS011;56038;46.080;11.116;2022-09-13T20:44:30;4.95;;;4.55;;
68987;SDS011;56038;46.080;11.116;2022-09-13T20:49:32;6.45;;;5.72;;
68987;SDS011;56038;46.080;11.116;2022-09-13T20:54:33;6.68;;;4.85;;
68987;SDS011;56038;46.080;11.116;2022-09-13T20:59:37;5.47;;;4.97;;
68987;SDS011;56038;46.080;11.116;2022-09-13T21:04:39;5.30;;;4.75;;
68987;SDS011;56038;46.080;11.116;2022-09-13T21:09:40;5.03;;;4.63;;
68987;SDS011;56038;46.080;11.116;2022-09-13T21:14:44;6.05;;;4.68;;
68987;SDS011;56038;46.080;11.116;2022-09-13T21:19:46;10.35;;;4.47;;
68987;SDS011;56038;46.080;11.116;2022-09-13T21:24:47;5.60;;;4.85;;
68987;SDS011;56038;46.080;11.116;2022-09-13T21:29:50;7.20;;;4.47;;
68987;SDS011;56038;46.080;11.116;2022-09-13T21:34:52;5.18;;;4.72;;
68987;SDS011;56038;46.080;11.116;2022-09-13T21:39:54;7.35;;;4.80;;
68987;SDS011;56038;46.080;11.116;2022-09-13T21:44:57;5.38;;;4.80;;
68987;SDS011;56038;46.080;11.116;2022-09-13T21:49:58;5.35;;;4.80;;
68987;SDS011;56038;46.080;11.116;2022-09-13T21:55:00;6.43;;;4.68;;
68987;SDS011;56038;46.080;11.116;2022-09-13T22:00:03;5.95;;;4.55;;
68987;SDS011;56038;46.080;11.116;2022-09-13T22:05:08;5.20;;;4.68;;
68987;SDS011;56038;46.080;11.116;2022-09-13T22:10:10;6.65;;;4.75;;
68987;SDS011;56038;46.080;11.116;2022-09-13T22:15:13;5.72;;;5.05;;
68987;SDS011;56038;46.080;11.116;2022-09-13T22:20:16;9.23;;;5.43;;
68987;SDS011;56038;46.080;11.116;2022-09-13T22:25:18;5.57;;;4.95;;
68987;SDS011;56038;46.080;11.116;2022-09-13T22:30:22;8.23;;;4.80;;
68987;SDS011;56038;46.080;11.116;2022-09-13T22:35:24;5.70;;;5.20;;
68987;SDS011;56038;46.080;11.116;2022-09-13T22:40:25;8.63;;;5.90;;
68987;SDS011;56038;46.080;11.116;2022-09-13T22:45:28;9.10;;;5.68;;
68987;SDS011;56038;46.080;11.116;2022-09-13T22:50:30;6.85;;;6.15;;
68987;SDS011;56038;46.080;11.116;2022-09-13T22:55:32;5.78;;;5.20;;
68987;SDS011;56038;46.080;11.116;2022-09-13T23:00:35;6.95;;;6.03;;
68987;SDS011;56038;46.080;11.116;2022-09-13T23:05:37;6.07;;;5.22;;
68987;SDS011;56038;46.080;11.116;2022-09-13T23:10:39;7.70;;;5.68;;
68987;SDS011;56038;46.080;11.116;2022-09-13T23:15:42;6.25;;;5.65;;
68987;SDS011;56038;46.080;11.116;2022-09-13T23:20:43;6.60;;;5.18;;
68987;SDS011;56038;46.080;11.116;2022-09-13T23:26:00;6.80;;;5.55;;
68987;SDS011;56038;46.080;11.116;2022-09-13T23:31:11;5.53;;;5.03;;
68987;SDS011;56038;46.080;11.116;2022-09-13T23:36:15;7.82;;;5.65;;
68987;SDS011;56038;46.080;11.116;2022-09-13T23:46:22;8.77;;;5.20;;
68987;SDS011;56038;46.080;11.116;2022-09-13T23:51:24;7.72;;;5.43;;
68987;SDS011;56038;46.080;11.116;2022-09-13T23:56:27;7.85;;;5.00;;
